TAF Text Data
IDs:
Format:
Raw Decoded Include METAR

Data at: 1703 UTC 20 May 2022

KISO 201122Z 2012/2112 22008KT P6SM FEW250
  FM201600 22009G15KT P6SM FEW250
  FM202300 21007KT P6SM FEW250
  FM210600 21006KT P6SM FEW250 WS020/23035KT AMD LTD TO CLD VIS AND WIND